createdAt,value
2022-09-25T00:01:10.913Z,43.83
2022-09-25T00:03:38.041Z,43.13
2022-09-25T00:06:07.588Z,42.40
2022-09-25T00:08:35.602Z,43.20
2022-09-25T00:11:07.898Z,43.24
2022-09-25T00:13:35.401Z,43.92
2022-09-25T00:16:04.144Z,43.18
2022-09-25T00:18:49.457Z,45.23
2022-09-25T00:21:17.734Z,44.16
2022-09-25T00:23:45.680Z,42.43
2022-09-25T00:26:14.573Z,43.55
2022-09-25T00:28:43.121Z,43.28
2022-09-25T00:31:11.399Z,42.99
2022-09-25T00:33:38.443Z,43.55
2022-09-25T00:36:08.356Z,42.54
2022-09-25T00:38:36.985Z,42.61
2022-09-25T00:41:07.259Z,42.64
2022-09-25T00:43:44.638Z,42.92
2022-09-25T00:46:19.227Z,43.51
2022-09-25T00:48:54.135Z,43.56
2022-09-25T00:51:28.969Z,43.47
2022-09-25T00:54:01.249Z,43.20
2022-09-25T00:56:39.165Z,43.91
2022-09-25T00:59:11.108Z,44.59
2022-09-25T01:01:38.363Z,45.00
2022-09-25T01:04:05.583Z,44.77
2022-09-25T01:06:32.788Z,44.26
2022-09-25T01:08:59.804Z,44.08
2022-09-25T01:11:26.745Z,44.57
2022-09-25T01:13:57.218Z,44.22
2022-09-25T01:16:46.870Z,44.40
2022-09-25T01:19:34.243Z,44.99
2022-09-25T01:22:26.430Z,44.13
2022-09-25T01:25:17.831Z,44.49
2022-09-25T01:28:06.983Z,44.62
2022-09-25T01:30:40.031Z,45.16
2022-09-25T01:33:24.099Z,45.06
2022-09-25T01:36:20.136Z,45.01
2022-09-25T01:39:06.794Z,44.52
2022-09-25T01:41:45.179Z,45.29
2022-09-25T01:44:28.023Z,44.44
2022-09-25T01:46:59.740Z,44.88
2022-09-25T01:49:49.558Z,44.78
2022-09-25T01:52:26.004Z,44.58
2022-09-25T01:55:08.540Z,45.23
2022-09-25T01:57:44.571Z,44.16
2022-09-25T02:00:21.896Z,44.86
2022-09-25T02:03:06.483Z,44.80
2022-09-25T02:06:05.042Z,44.50
2022-09-25T02:08:39.722Z,45.16
2022-09-25T02:11:08.821Z,44.40
2022-09-25T02:13:53.248Z,44.79
2022-09-25T02:16:26.201Z,44.80
2022-09-25T02:19:12.244Z,45.79
2022-09-25T02:21:44.455Z,45.20
2022-09-25T02:24:49.030Z,45.09
2022-09-25T02:27:18.311Z,45.73
2022-09-25T02:29:44.980Z,44.83
2022-09-25T02:32:19.074Z,45.09
2022-09-25T02:34:46.277Z,45.17
2022-09-25T02:37:15.440Z,46.45
2022-09-25T02:39:47.888Z,46.66
2022-09-25T02:42:18.201Z,45.76
2022-09-25T02:44:50.720Z,45.42
2022-09-25T02:47:52.565Z,45.73
2022-09-25T02:50:46.980Z,46.08
2022-09-25T02:53:43.418Z,46.11
2022-09-25T02:56:32.017Z,46.23
2022-09-25T02:59:08.370Z,45.96
2022-09-25T03:01:39.802Z,45.98
2022-09-25T03:04:07.218Z,46.05
2022-09-25T03:06:34.125Z,46.12
2022-09-25T03:09:02.925Z,46.01
2022-09-25T03:11:29.673Z,46.08
2022-09-25T03:14:01.496Z,46.12
2022-09-25T03:16:40.850Z,46.09
2022-09-25T03:19:08.022Z,46.54
2022-09-25T03:21:34.716Z,46.66
2022-09-25T03:24:01.918Z,46.24
2022-09-25T03:26:29.822Z,46.17
2022-09-25T03:28:57.395Z,46.04
2022-09-25T03:31:24.345Z,46.85
2022-09-25T03:33:51.115Z,46.85
2022-09-25T03:36:23.776Z,47.27
2022-09-25T03:38:57.962Z,46.54
2022-09-25T03:41:28.049Z,46.56
2022-09-25T03:43:56.666Z,46.71
2022-09-25T03:46:29.061Z,47.00
2022-09-25T03:48:57.130Z,46.61
2022-09-25T03:51:25.329Z,46.77
2022-09-25T03:53:52.238Z,46.67
2022-09-25T03:56:22.863Z,46.67
2022-09-25T03:58:51.141Z,46.60
2022-09-25T04:01:21.977Z,46.47
2022-09-25T04:03:50.581Z,46.98
2022-09-25T04:06:20.116Z,46.79
2022-09-25T04:08:48.200Z,46.40
2022-09-25T04:11:16.168Z,46.28
2022-09-25T04:13:44.145Z,46.32
2022-09-25T04:16:12.223Z,46.50
2022-09-25T04:18:41.839Z,47.23
2022-09-25T04:21:10.667Z,46.54
2022-09-25T04:23:38.696Z,46.09
2022-09-25T04:26:05.904Z,46.06
2022-09-25T04:28:33.168Z,47.73
2022-09-25T04:31:00.633Z,46.83
2022-09-25T04:33:45.794Z,46.77
2022-09-25T04:36:12.962Z,47.41
2022-09-25T04:38:39.744Z,47.01
2022-09-25T04:41:08.144Z,46.78
2022-09-25T04:43:35.361Z,46.92
2022-09-25T04:46:03.961Z,45.91
2022-09-25T04:48:31.578Z,46.34
2022-09-25T04:50:58.590Z,46.63
2022-09-25T04:53:27.234Z,46.58
2022-09-25T04:55:55.227Z,46.93
2022-09-25T04:58:22.259Z,48.04
2022-09-25T05:00:49.798Z,46.90
2022-09-25T05:03:16.800Z,46.58
2022-09-25T05:05:44.168Z,46.52
2022-09-25T05:08:11.603Z,47.00
2022-09-25T05:10:39.815Z,46.51
2022-09-25T05:13:09.195Z,46.62
2022-09-25T05:15:36.367Z,46.47
2022-09-25T05:18:04.505Z,45.90
2022-09-25T05:20:31.372Z,45.83
2022-09-25T05:22:58.558Z,45.89
2022-09-25T05:25:26.744Z,46.50
2022-09-25T05:27:55.940Z,46.57
2022-09-25T05:30:23.157Z,45.97
2022-09-25T05:32:51.472Z,46.36
2022-09-25T05:35:22.505Z,46.75
2022-09-25T05:37:51.328Z,46.16
2022-09-25T05:40:21.088Z,46.71
2022-09-25T05:42:49.172Z,47.59
2022-09-25T05:45:17.499Z,46.45
2022-09-25T05:47:44.858Z,46.18
2022-09-25T05:50:14.207Z,46.43
2022-09-25T05:52:41.208Z,45.13
2022-09-25T05:55:09.655Z,44.46
2022-09-25T05:57:37.837Z,45.37
2022-09-25T06:00:09.087Z,46.46
2022-09-25T06:02:41.564Z,47.31
2022-09-25T06:05:09.118Z,46.20
2022-09-25T06:07:36.741Z,46.10
2022-09-25T06:10:03.844Z,48.75
2022-09-25T06:12:31.386Z,49.28
2022-09-25T06:14:58.267Z,49.01
2022-09-25T06:17:25.280Z,48.01
2022-09-25T06:19:52.039Z,45.68
2022-09-25T06:22:18.886Z,45.49
2022-09-25T06:24:45.951Z,45.25
2022-09-25T06:27:12.699Z,45.71
2022-09-25T06:29:39.335Z,44.55
2022-09-25T06:32:06.203Z,45.90
2022-09-25T06:34:32.918Z,46.77
2022-09-25T06:37:03.063Z,44.67
2022-09-25T06:39:33.237Z,44.27
2022-09-25T06:42:00.166Z,47.18
2022-09-25T06:44:28.325Z,46.96
2022-09-25T06:46:55.290Z,48.52
2022-09-25T06:49:23.354Z,45.94
2022-09-25T06:51:51.275Z,44.05
2022-09-25T06:54:18.559Z,46.12
2022-09-25T06:56:49.496Z,43.18
2022-09-25T06:59:17.086Z,42.76
2022-09-25T07:01:44.075Z,43.56
2022-09-25T07:04:10.822Z,41.97
2022-09-25T07:06:37.965Z,43.09
2022-09-25T07:09:04.920Z,41.00
2022-09-25T07:11:33.187Z,40.86
2022-09-25T07:14:00.025Z,41.04
2022-09-25T07:16:29.962Z,43.02
2022-09-25T07:19:00.508Z,41.31
2022-09-25T07:21:30.649Z,40.25
2022-09-25T07:23:59.001Z,40.81
2022-09-25T07:26:33.888Z,39.36
2022-09-25T07:29:04.320Z,40.57
2022-09-25T07:31:33.398Z,38.49
2022-09-25T07:34:06.015Z,39.13
2022-09-25T07:36:33.237Z,39.03
2022-09-25T07:38:59.960Z,41.15
2022-09-25T07:41:27.204Z,39.96
2022-09-25T07:44:24.313Z,39.14
2022-09-25T07:46:46.580Z,38.68
2022-09-25T07:49:14.098Z,37.88
2022-09-25T07:51:41.201Z,37.95
2022-09-25T07:54:08.376Z,38.82
2022-09-25T07:56:35.510Z,38.16
2022-09-25T07:59:02.336Z,37.23
2022-09-25T08:01:29.521Z,36.74
2022-09-25T08:03:56.256Z,37.41
2022-09-25T08:06:23.169Z,37.89
2022-09-25T08:08:50.027Z,38.34
2022-09-25T08:11:18.335Z,38.08
2022-09-25T08:13:45.818Z,36.59
2022-09-25T08:16:16.820Z,36.53
2022-09-25T08:18:46.253Z,34.14
2022-09-25T08:21:14.603Z,34.21
2022-09-25T08:23:47.813Z,35.41
2022-09-25T08:26:17.035Z,33.53
2022-09-25T08:28:44.687Z,34.68
2022-09-25T08:31:13.285Z,34.02
2022-09-25T08:33:44.963Z,33.48
2022-09-25T08:36:11.968Z,33.71
2022-09-25T08:38:38.614Z,32.72
2022-09-25T08:41:25.657Z,32.67
2022-09-25T08:44:24.065Z,32.57
2022-09-25T08:47:24.013Z,33.32
2022-09-25T08:50:13.908Z,32.27
2022-09-25T08:52:45.169Z,33.91
2022-09-25T08:55:50.311Z,31.88
2022-09-25T08:58:25.975Z,31.30
2022-09-25T09:00:55.042Z,31.62
2022-09-25T09:03:25.691Z,30.79
2022-09-25T09:06:01.135Z,30.04
2022-09-25T09:08:31.457Z,30.52
2022-09-25T09:11:03.426Z,29.19
2022-09-25T09:13:36.908Z,30.50
2022-09-25T09:16:09.228Z,29.95
2022-09-25T09:18:41.096Z,29.70
2022-09-25T09:21:22.713Z,29.41
2022-09-25T09:23:49.592Z,29.59
2022-09-25T09:26:20.637Z,29.98
2022-09-25T09:28:48.453Z,28.38
2022-09-25T09:31:34.107Z,28.91
2022-09-25T09:34:53.536Z,28.47
2022-09-25T09:37:45.876Z,28.50
2022-09-25T09:40:25.852Z,29.02
2022-09-25T09:43:04.260Z,28.64
2022-09-25T09:45:43.495Z,30.21
2022-09-25T09:48:13.228Z,30.26
2022-09-25T09:50:46.141Z,29.15
2022-09-25T09:53:18.487Z,28.57
2022-09-25T09:55:50.758Z,28.08
2022-09-25T09:58:50.327Z,28.47
2022-09-25T10:04:11.180Z,28.18
2022-09-25T10:06:43.406Z,27.29
2022-09-25T10:09:15.289Z,27.30
2022-09-25T10:11:45.659Z,28.79
2022-09-25T10:14:21.411Z,26.55
2022-09-25T10:16:51.247Z,26.84
2022-09-25T10:19:22.194Z,27.50
2022-09-25T10:22:07.334Z,27.12
2022-09-25T10:24:55.218Z,28.03
2022-09-25T10:27:24.807Z,26.85
2022-09-25T10:30:09.655Z,26.53
2022-09-25T10:32:56.464Z,27.46
2022-09-25T10:35:39.153Z,26.54
2022-09-25T10:38:17.418Z,26.40
2022-09-25T10:40:47.683Z,26.62
2022-09-25T10:43:23.559Z,24.94
2022-09-25T10:46:05.829Z,26.20
2022-09-25T10:48:56.644Z,25.91
2022-09-25T10:51:24.575Z,25.44
2022-09-25T10:54:12.989Z,25.28
2022-09-25T10:56:40.257Z,25.20
2022-09-25T10:59:19.754Z,23.91
2022-09-25T11:01:49.373Z,24.96
2022-09-25T11:04:28.119Z,26.35
2022-09-25T11:07:01.951Z,25.76
2022-09-25T11:09:32.480Z,24.27
2022-09-25T11:12:22.175Z,24.32
2022-09-25T11:15:04.984Z,23.78
2022-09-25T11:17:38.224Z,24.14
2022-09-25T11:20:21.136Z,23.38
2022-09-25T11:23:04.621Z,23.50
2022-09-25T11:25:46.844Z,24.50
2022-09-25T11:28:18.496Z,23.25
2022-09-25T11:30:54.714Z,22.94
2022-09-25T11:33:42.238Z,23.53
2022-09-25T11:36:27.549Z,23.71
2022-09-25T11:39:15.158Z,22.79
2022-09-25T11:41:46.998Z,22.92
2022-09-25T11:44:37.122Z,21.76
2022-09-25T11:47:06.635Z,21.53
2022-09-25T11:49:36.790Z,22.24
2022-09-25T11:52:29.443Z,22.57
2022-09-25T11:55:15.268Z,22.30
2022-09-25T11:58:01.077Z,22.03
2022-09-25T12:00:28.589Z,22.82
2022-09-25T12:03:16.888Z,21.49
2022-09-25T12:06:21.769Z,21.63
2022-09-25T12:09:10.366Z,21.21
2022-09-25T12:12:08.760Z,20.54
2022-09-25T12:14:47.356Z,21.15
2022-09-25T12:17:49.459Z,20.60
2022-09-25T12:20:28.258Z,19.76
2022-09-25T12:23:01.744Z,20.59
2022-09-25T12:25:40.722Z,19.75
2022-09-25T12:28:25.862Z,19.25
2022-09-25T12:31:02.279Z,19.26
2022-09-25T12:34:08.957Z,19.84
2022-09-25T12:36:42.878Z,18.91
2022-09-25T12:39:37.321Z,19.39
2022-09-25T12:42:24.110Z,19.43
2022-09-25T12:45:03.212Z,19.25
2022-09-25T12:47:37.674Z,18.70
2022-09-25T12:50:30.453Z,17.69
2022-09-25T12:53:15.164Z,17.31
2022-09-25T12:55:50.739Z,16.43
2022-09-25T12:58:25.974Z,17.89
2022-09-25T13:00:59.707Z,18.22
2022-09-25T13:04:10.646Z,18.58
2022-09-25T13:07:04.032Z,17.82
2022-09-25T13:09:36.903Z,17.68
2022-09-25T13:12:15.236Z,17.58
2022-09-25T13:14:48.617Z,17.94
2022-09-25T13:17:16.054Z,17.73
2022-09-25T13:19:42.870Z,17.80
2022-09-25T13:22:27.053Z,17.71
2022-09-25T13:25:05.351Z,18.13
2022-09-25T13:27:42.727Z,17.97
2022-09-25T13:30:20.435Z,16.66
2022-09-25T13:32:53.096Z,15.99
2022-09-25T13:35:22.279Z,15.66
2022-09-25T13:37:52.727Z,15.65
2022-09-25T13:40:41.409Z,15.70
2022-09-25T13:43:25.255Z,15.19
2022-09-25T13:46:17.969Z,16.56
2022-09-25T13:48:44.882Z,15.95
2022-09-25T13:51:20.233Z,15.08
2022-09-25T13:54:23.974Z,16.01
2022-09-25T13:56:53.599Z,15.84
2022-09-25T13:59:23.215Z,16.11
2022-09-25T14:01:54.075Z,17.09
2022-09-25T14:04:28.226Z,15.76
2022-09-25T14:07:26.676Z,16.15
2022-09-25T14:09:59.068Z,16.28
2022-09-25T14:12:48.095Z,17.09
2022-09-25T14:15:37.594Z,17.36
2022-09-25T14:18:09.382Z,16.34
2022-09-25T14:20:40.855Z,16.40
2022-09-25T14:23:24.203Z,17.25
2022-09-25T14:26:07.357Z,17.15
2022-09-25T14:28:46.234Z,16.98
2022-09-25T14:31:37.669Z,17.97
2022-09-25T14:34:30.034Z,17.07
2022-09-25T14:37:01.653Z,17.26
2022-09-25T14:39:45.121Z,16.41
2022-09-25T14:42:39.468Z,16.81
2022-09-25T14:45:12.631Z,18.29
2022-09-25T14:47:43.622Z,17.95
2022-09-25T14:50:28.890Z,16.77
2022-09-25T14:53:00.013Z,17.37
2022-09-25T14:55:34.977Z,17.19
2022-09-25T14:58:02.799Z,17.88
2022-09-25T15:00:30.084Z,17.48
2022-09-25T15:02:58.433Z,17.63
2022-09-25T15:05:27.869Z,18.25
2022-09-25T15:07:59.403Z,18.24
2022-09-25T15:10:41.332Z,18.99
2022-09-25T15:13:15.906Z,19.70
2022-09-25T15:16:06.370Z,20.42
2022-09-25T15:18:37.926Z,20.27
2022-09-25T15:21:08.786Z,20.00
2022-09-25T15:23:38.529Z,19.93
2022-09-25T15:26:05.481Z,19.84
2022-09-25T15:28:40.101Z,19.97
2022-09-25T15:31:07.427Z,20.01
2022-09-25T15:33:37.343Z,20.23
2022-09-25T15:36:24.549Z,20.33
2022-09-25T15:39:00.841Z,20.53
2022-09-25T15:41:29.339Z,20.79
2022-09-25T15:44:26.132Z,20.27
2022-09-25T15:47:02.214Z,20.43
2022-09-25T15:49:41.283Z,21.37
2022-09-25T15:52:33.704Z,21.50
2022-09-25T15:55:14.649Z,21.10
2022-09-25T15:57:42.276Z,20.88
2022-09-25T16:00:36.783Z,21.64
2022-09-25T16:03:48.538Z,21.63
2022-09-25T16:06:16.939Z,21.64
2022-09-25T16:08:44.162Z,22.21
2022-09-25T16:11:16.822Z,21.85
2022-09-25T16:13:47.904Z,21.48
2022-09-25T16:16:24.179Z,21.42
2022-09-25T16:18:54.358Z,21.55
2022-09-25T16:21:28.942Z,22.02
2022-09-25T16:24:02.859Z,21.61
2022-09-25T16:26:39.318Z,21.15
2022-09-25T16:29:11.974Z,21.61
2022-09-25T16:31:41.332Z,21.19
2022-09-25T16:34:19.482Z,22.25
2022-09-25T16:36:48.582Z,21.38
2022-09-25T16:39:25.636Z,21.88
2022-09-25T16:41:53.241Z,21.76
2022-09-25T16:44:35.791Z,21.89
2022-09-25T16:47:21.609Z,22.18
2022-09-25T16:49:49.445Z,22.49
2022-09-25T16:52:23.373Z,23.18
2022-09-25T16:54:53.415Z,23.39
2022-09-25T16:57:25.401Z,23.22
2022-09-25T16:59:52.653Z,23.99
2022-09-25T17:02:37.262Z,24.04
2022-09-25T17:05:08.052Z,23.77
2022-09-25T17:07:35.028Z,23.94
2022-09-25T17:10:02.341Z,23.67
2022-09-25T17:12:31.517Z,23.98
2022-09-25T17:14:59.340Z,24.87
2022-09-25T17:17:26.389Z,24.44
2022-09-25T17:19:53.191Z,24.72
2022-09-25T17:22:20.169Z,24.98
2022-09-25T17:24:46.893Z,25.24
2022-09-25T17:27:16.604Z,24.69
2022-09-25T17:29:44.055Z,24.79
2022-09-25T17:32:13.736Z,24.98
2022-09-25T17:34:41.216Z,25.10
2022-09-25T17:37:08.265Z,25.13
2022-09-25T17:39:35.041Z,25.08
2022-09-25T17:42:02.825Z,26.79
2022-09-25T17:44:29.879Z,26.95
2022-09-25T17:46:57.643Z,26.17
2022-09-25T17:49:25.550Z,26.27
2022-09-25T17:51:52.878Z,26.34
2022-09-25T17:54:20.045Z,27.02
2022-09-25T17:56:47.056Z,26.85
2022-09-25T17:59:14.769Z,27.83
2022-09-25T18:01:41.688Z,27.52
2022-09-25T18:04:23.677Z,27.93
2022-09-25T18:06:51.376Z,28.25
2022-09-25T18:09:18.365Z,27.54
2022-09-25T18:11:45.405Z,27.23
2022-09-25T18:14:14.877Z,28.31
2022-09-25T18:16:43.797Z,28.91
2022-09-25T18:19:34.571Z,29.17
2022-09-25T18:22:17.588Z,28.68
2022-09-25T18:24:46.066Z,29.60
2022-09-25T18:27:13.670Z,28.51
2022-09-25T18:29:40.730Z,28.73
2022-09-25T18:32:08.309Z,28.99
2022-09-25T18:34:35.215Z,28.79
2022-09-25T18:37:02.073Z,28.25
2022-09-25T18:39:29.606Z,28.44
2022-09-25T18:41:56.466Z,29.50
2022-09-25T18:44:23.627Z,29.73
2022-09-25T18:46:51.778Z,30.13
2022-09-25T18:49:19.204Z,29.36
2022-09-25T18:51:46.118Z,29.44
2022-09-25T18:54:14.427Z,28.91
2022-09-25T18:56:41.653Z,29.05
2022-09-25T18:59:08.569Z,29.02
2022-09-25T19:01:36.271Z,29.36
2022-09-25T19:04:04.074Z,29.17
2022-09-25T19:06:30.855Z,29.46
2022-09-25T19:08:58.174Z,29.95
2022-09-25T19:11:26.959Z,31.21
2022-09-25T19:13:54.205Z,31.61
2022-09-25T19:16:21.806Z,31.28
2022-09-25T19:18:50.363Z,31.07
2022-09-25T19:21:22.286Z,31.13
2022-09-25T19:23:49.901Z,32.12
2022-09-25T19:26:20.972Z,31.79
2022-09-25T19:28:48.343Z,31.33
2022-09-25T19:31:18.008Z,31.45
2022-09-25T19:33:45.185Z,31.47
2022-09-25T19:36:19.448Z,31.32
2022-09-25T19:38:47.024Z,30.82
2022-09-25T19:41:16.520Z,32.30
2022-09-25T19:43:43.936Z,32.62
2022-09-25T19:46:17.359Z,32.27
2022-09-25T19:48:44.920Z,32.25
2022-09-25T19:51:11.789Z,32.45
2022-09-25T19:53:40.613Z,31.53
2022-09-25T19:56:08.794Z,31.86
2022-09-25T19:58:38.351Z,31.67
2022-09-25T20:01:15.663Z,31.42
2022-09-25T20:03:43.099Z,31.75
2022-09-25T20:06:11.133Z,31.85
2022-09-25T20:08:38.888Z,31.68
2022-09-25T20:11:32.691Z,32.11
2022-09-25T20:14:01.975Z,32.56
2022-09-25T20:16:29.959Z,32.17
2022-09-25T20:19:02.781Z,32.14
2022-09-25T20:21:32.830Z,33.20
2022-09-25T20:24:01.975Z,33.42
2022-09-25T20:26:30.194Z,33.48
2022-09-25T20:29:02.447Z,33.68
2022-09-25T20:31:32.812Z,35.97
2022-09-25T20:33:59.629Z,35.29
2022-09-25T20:36:26.689Z,35.68
2022-09-25T20:38:56.313Z,35.15
2022-09-25T20:41:24.850Z,34.52
2022-09-25T20:43:55.096Z,34.57
2022-09-25T20:46:23.938Z,34.47
2022-09-25T20:48:52.794Z,33.44
2022-09-25T20:51:23.984Z,33.39
2022-09-25T20:53:52.313Z,33.40
2022-09-25T20:56:19.715Z,33.56
2022-09-25T20:58:52.189Z,33.92
2022-09-25T21:01:22.862Z,34.10
2022-09-25T21:03:50.960Z,34.06
2022-09-25T21:06:20.732Z,33.78
2022-09-25T21:08:51.649Z,34.00
2022-09-25T21:11:18.646Z,33.72
2022-09-25T21:13:50.380Z,33.96
2022-09-25T21:16:18.260Z,34.06
2022-09-25T21:18:45.124Z,33.87
2022-09-25T21:21:14.264Z,34.67
2022-09-25T21:23:43.663Z,34.09
2022-09-25T21:26:13.829Z,34.30
2022-09-25T21:28:46.202Z,34.88
2022-09-25T21:31:16.344Z,34.77
2022-09-25T21:33:43.770Z,35.40
2022-09-25T21:36:13.293Z,36.56
2022-09-25T21:38:40.000Z,36.35
2022-09-25T21:41:08.899Z,35.73
2022-09-25T21:43:36.091Z,35.04
2022-09-25T21:46:09.232Z,36.03
2022-09-25T21:48:37.318Z,36.68
2022-09-25T21:51:05.817Z,36.40
2022-09-25T21:53:33.960Z,36.91
2022-09-25T21:56:02.134Z,37.03
2022-09-25T21:58:29.806Z,37.32
2022-09-25T22:01:10.292Z,37.63
2022-09-25T22:03:41.373Z,37.95
2022-09-25T22:06:14.021Z,38.57
2022-09-25T22:08:44.022Z,37.39
2022-09-25T22:11:12.007Z,38.16
2022-09-25T22:13:41.793Z,37.68
2022-09-25T22:16:18.154Z,38.02
2022-09-25T22:18:56.905Z,37.64
2022-09-25T22:21:26.168Z,38.24
2022-09-25T22:23:53.082Z,37.69
2022-09-25T22:26:20.480Z,38.14
2022-09-25T22:28:48.001Z,39.11
2022-09-25T22:31:23.450Z,38.57
2022-09-25T22:33:54.361Z,38.59
2022-09-25T22:36:21.753Z,37.55
2022-09-25T22:38:48.466Z,38.09
2022-09-25T22:41:16.276Z,38.41
2022-09-25T22:43:43.257Z,38.42
2022-09-25T22:46:11.765Z,38.60
2022-09-25T22:48:40.769Z,40.67
2022-09-25T22:51:13.036Z,39.46
2022-09-25T22:53:40.632Z,39.15
2022-09-25T22:56:16.399Z,38.89
2022-09-25T22:58:48.034Z,39.52
2022-09-25T23:01:18.688Z,39.67
2022-09-25T23:03:45.555Z,40.25
2022-09-25T23:06:12.346Z,39.04
2022-09-25T23:08:39.146Z,40.08
2022-09-25T23:11:08.285Z,40.67
2022-09-25T23:13:36.001Z,40.36
2022-09-25T23:16:07.534Z,40.27
2022-09-25T23:18:37.594Z,40.27
2022-09-25T23:21:05.167Z,40.95
2022-09-25T23:23:32.489Z,41.00
2022-09-25T23:26:06.326Z,40.77
2022-09-25T23:28:35.431Z,40.70
2022-09-25T23:31:10.782Z,40.10
2022-09-25T23:33:39.644Z,39.63
2022-09-25T23:36:09.304Z,39.93
2022-09-25T23:38:36.978Z,40.03
2022-09-25T23:41:13.953Z,39.71
2022-09-25T23:43:40.873Z,39.83
2022-09-25T23:46:08.018Z,40.56
2022-09-25T23:48:35.112Z,40.56
2022-09-25T23:51:01.975Z,40.72
2022-09-25T23:53:28.728Z,39.70
2022-09-25T23:55:55.763Z,40.40
2022-09-25T23:58:22.562Z,40.52
